Platteville, WI

5:39 AM CDT on October 02, 2014 (GMT -0500)
UW-Platteville Campus | Change Station
CLOSE
Current Station
Personal Weather Station
Location: Platteville, WI
Elevation: 1000 ft
Nearby Weather Stations

Elev 1000 ft 42.73 °N, 90.49 °W | Updated 9 minutes ago

Overcast
Overcast
62.4 °F
Feels Like 62.4 °F
N
3.0
Wind Variable Wind from SE
Gusts 8.0 mph

Today
High -- | Low -- °F
--% Chance of Precip.
Yesterday
High -- | Low -- °F
Precip. -- in
7:00 AM 6:41 PM
First Quarter, 57% visible
Pressure 29.83 in
Visibility 10.0 miles
Clouds Overcast 1500 ft
Dew Point 58 °F
Humidity 86%
Rainfall -999.00 in
Snow Depth Not available.
UV 0 out of 12
Pollen 2.80 out of 12
Air Quality Not available.
Flu Activity Not available.
METAR KPVB 021015Z AUTO 11003KT 10SM OVC015 17/15 A2983 RMK AO1 T01650150

More Conditions Fewer Conditions

Pressure 29.83 in
Visibility 10.0 miles
Clouds Overcast 1500 ft
Dew Point 58 °F
Humidity 86%
Rainfall -999.00 in
Snow Depth Not available.
UV 0 out of 12
Pollen 2.80 out of 12
Air Quality Not available.
Flu Activity Not available.
METAR KPVB 021015Z AUTO 11003KT 10SM OVC015 17/15 A2983 RMK AO1 T01650150

More Conditions Fewer Conditions

10-Day Weather Forecast

Almanac

Astronomy

Oct. 02, 2014 Rise Set
Actual Time 7:00 AM CDT 6:41 PM CDT
Civil Twilight 6:32 AM CDT 7:09 PM CDT
Nautical Twilight 5:59 AM CDT 7:42 PM CDT
Astronomical Twilight 5:26 AM CDT 8:15 PM CDT
Moon 2:55 PM CDT 12:09 AM CDT
Length of Visible Light 12h 37m
Length of Day
11h 41m
Tomorrow will be 2m 52s shorter.
First Quarter, 57% of the Moon is Illuminated
Today
First Quarter
Oct 8
Full
Oct 15
Last Quarter
Oct 23
New
Oct 30
First Quarter

Today's Extremes

State Highs State Lows

Community

WunderPhotos

Upload Photos

1,758,210 photos uploaded!

WunderBlogs® & News

Nearby

Snow Depth

Station Depth Elevation
No new snow has been reported.

Earthquake Activity

City Distance Mag. Time & Date
No recent earthquake activity has been reported nearby.
Minimum magnitude displayed is 2.5.

Coastal Water Temperatures

Place Temperature
No Stations Reporting

Nearby Weather Stations